Time;durP1;ratioP1;P1;durP2;ratioP2;P2;SDS_P1;SDS_P2;PMS_P1;PMS_P2;Temp;Humidity;BMP_temperature;BMP_pressure;BME280_temperature;BME280_humidity;BME280_pressure;Samples;Min_cycle;Max_cycle;Signal;HPM_P1;HPM_P2
2020/12/06 00:01:35;;;;;;;;;;;;;;;28.63;27.46;101434.41;5057508;28;783;-34
2020/12/06 00:04:00;;;;;;;;;;;;;;;28.45;27.58;101443.59;5057504;28;1969;-35
2020/12/06 00:06:26;;;;;;;;;;;;;;;28.42;27.83;101441.25;5057126;28;850;-35
2020/12/06 00:08:51;;;;;;;;;;;;;;;28.74;27.72;101434.00;5057296;28;748;-36
2020/12/06 00:11:17;;;;;;;;;;;;;;;28.59;27.53;101447.44;5056864;28;1018;-34
2020/12/06 00:13:42;;;;;;;;;;;;;;;27.93;28.65;101446.59;5057076;28;862;-33
2020/12/06 00:16:14;;;;;;;;;;;;;;;28.23;28.07;101452.28;5057292;28;800;-34
2020/12/06 00:18:40;;;;;;;;;;;;;;;28.72;27.63;101450.44;5055610;28;1515;-34
2020/12/06 00:21:05;;;;;;;;;;;;;;;28.65;27.66;101454.00;5038905;28;1358;-33
2020/12/06 00:23:31;;;;;;;;;;;;;;;28.05;28.67;101448.94;5057117;28;2016;-35
2020/12/06 00:25:56;;;;;;;;;;;;;;;28.47;28.11;101449.69;5056501;28;967;-37
2020/12/06 00:28:21;;;;;;;;;;;;;;;28.89;27.35;101454.91;5057325;28;811;-36
2020/12/06 00:30:47;;;;;;;;;;;;;;;28.72;27.63;101450.44;5056858;28;884;-35
2020/12/06 00:33:12;;;;;;;;;;;;;;;28.18;27.99;101451.94;5056505;28;760;-34
2020/12/06 00:35:37;;;;;;;;;;;;;;;28.53;28.24;101445.44;5057054;28;753;-35
2020/12/06 00:38:03;;;;;;;;;;;;;;;28.84;27.57;101456.28;5056823;28;759;-34
2020/12/06 00:40:28;;;;;;;;;;;;;;;28.73;27.42;101446.69;5056234;28;955;-31
2020/12/06 00:42:53;;;;;;;;;;;;;;;28.30;27.93;101447.00;5056519;28;1898;-34
2020/12/06 00:45:18;;;;;;;;;;;;;;;28.67;27.94;101447.41;5056727;28;843;-37
2020/12/06 00:47:44;;;;;;;;;;;;;;;28.88;27.60;101448.63;5056511;28;792;-35
2020/12/06 00:50:09;;;;;;;;;;;;;;;28.72;27.52;101441.47;5056723;28;834;-39
2020/12/06 00:52:34;;;;;;;;;;;;;;;28.22;28.07;101433.50;5056740;28;780;-34
2020/12/06 00:55:00;;;;;;;;;;;;;;;28.53;27.87;101443.56;5056481;28;931;-39
2020/12/06 00:57:25;;;;;;;;;;;;;;;28.93;27.75;101440.81;5056395;28;753;-35
2020/12/06 00:59:50;;;;;;;;;;;;;;;28.71;27.79;101439.78;5056262;28;899;-39
2020/12/06 01:02:16;;;;;;;;;;;;;;;28.31;28.12;101440.56;5056379;28;775;-35
2020/12/06 01:04:41;;;;;;;;;;;;;;;28.67;28.17;101444.69;5056006;28;1959;-34
2020/12/06 01:07:07;;;;;;;;;;;;;;;28.81;27.57;101437.69;5056362;28;753;-34
2020/12/06 01:09:32;;;;;;;;;;;;;;;28.24;28.66;101434.19;5056319;28;827;-34
2020/12/06 01:11:58;;;;;;;;;;;;;;;28.43;28.43;101437.50;5055882;28;932;-35
2020/12/06 01:14:24;;;;;;;;;;;;;;;28.83;27.89;101440.19;5056175;28;825;-36
2020/12/06 01:16:49;;;;;;;;;;;;;;;29.06;27.54;101442.97;5056260;28;832;-35
2020/12/06 01:19:15;;;;;;;;;;;;;;;28.80;27.44;101435.16;5062322;28;1104;-35
2020/12/06 01:21:40;;;;;;;;;;;;;;;28.33;28.06;101435.03;5075913;28;808;-35
2020/12/06 01:24:06;;;;;;;;;;;;;;;28.60;28.29;101436.44;5076126;28;1921;-35
2020/12/06 01:26:31;;;;;;;;;;;;;;;28.89;27.31;101435.94;5060472;28;994;-36
2020/12/06 01:28:56;;;;;;;;;;;;;;;28.55;28.17;101435.28;5055939;28;808;-35
2020/12/06 01:31:21;;;;;;;;;;;;;;;28.38;27.98;101431.81;5059256;28;768;-35
2020/12/06 01:33:47;;;;;;;;;;;;;;;28.85;27.79;101432.75;5060097;28;764;-35
2020/12/06 01:36:12;;;;;;;;;;;;;;;29.00;27.58;101432.00;5060148;28;800;-35
2020/12/06 01:38:37;;;;;;;;;;;;;;;28.58;28.23;101422.22;5059881;28;915;-36
2020/12/06 01:41:03;;;;;;;;;;;;;;;28.29;28.58;101429.09;5059516;28;952;-35
2020/12/06 01:43:28;;;;;;;;;;;;;;;28.73;28.10;101427.75;5059510;28;1969;-35
2020/12/06 01:45:53;;;;;;;;;;;;;;;28.99;27.51;101427.63;5059877;28;575;-35
2020/12/06 01:48:19;;;;;;;;;;;;;;;28.85;27.51;101430.91;5059616;28;844;-35
2020/12/06 01:50:44;;;;;;;;;;;;;;;28.13;28.86;101419.16;5059877;28;812;-35
2020/12/06 01:53:09;;;;;;;;;;;;;;;28.69;28.28;101414.75;5059988;28;768;-34
2020/12/06 01:55:35;;;;;;;;;;;;;;;29.02;27.49;101417.28;5059238;28;963;-35
2020/12/06 01:58:03;;;;;;;;;;;;;;;28.98;27.45;101412.41;5059794;28;755;-35
2020/12/06 02:00:28;;;;;;;;;;;;;;;28.41;28.62;101412.53;5059800;28;831;-35
2020/12/06 02:02:54;;;;;;;;;;;;;;;28.65;27.94;101414.25;5059255;28;1985;-35
2020/12/06 02:05:19;;;;;;;;;;;;;;;28.96;27.60;101418.78;5059756;28;804;-34
2020/12/06 02:07:44;;;;;;;;;;;;;;;28.86;27.84;101410.09;5059527;28;780;-33
2020/12/06 02:10:09;;;;;;;;;;;;;;;28.15;28.98;101413.56;5040950;28;968;-36
2020/12/06 02:12:35;;;;;;;;;;;;;;;28.65;28.54;101416.09;5059614;28;893;-34
2020/12/06 02:15:00;;;;;;;;;;;;;;;29.00;28.09;101423.88;5059278;28;795;-35
2020/12/06 02:17:26;;;;;;;;;;;;;;;29.01;27.47;101417.47;5059025;28;1117;-35
2020/12/06 02:19:54;;;;;;;;;;;;;;;28.44;28.37;101414.88;5059393;28;780;-35
2020/12/06 02:22:19;;;;;;;;;;;;;;;28.48;28.20;101414.34;5058915;28;851;-35
2020/12/06 02:24:44;;;;;;;;;;;;;;;28.91;28.18;101413.06;5059133;28;1906;-34
2020/12/06 02:27:09;;;;;;;;;;;;;;;28.96;27.46;101423.38;5059265;28;787;-35
2020/12/06 02:29:35;;;;;;;;;;;;;;;28.55;28.39;101413.63;5059326;28;771;-35
2020/12/06 02:32:00;;;;;;;;;;;;;;;28.46;28.53;101410.13;5059072;28;823;-34
2020/12/06 02:34:25;;;;;;;;;;;;;;;28.92;27.77;101413.94;5059183;28;843;-34
2020/12/06 02:36:51;;;;;;;;;;;;;;;29.15;27.40;101413.13;5058884;28;760;-34
2020/12/06 02:39:16;;;;;;;;;;;;;;;28.97;27.31;101408.84;5041303;28;784;-34
2020/12/06 02:41:42;;;;;;;;;;;;;;;28.41;28.51;101396.28;5058019;28;948;-34
2020/12/06 02:44:08;;;;;;;;;;;;;;;28.75;28.47;101407.75;5058756;28;1902;-34
2020/12/06 02:46:33;;;;;;;;;;;;;;;29.04;27.72;101400.84;5058718;28;816;-34
2020/12/06 02:48:58;;;;;;;;;;;;;;;29.12;27.45;101400.78;5063090;28;876;-35
2020/12/06 02:51:24;;;;;;;;;;;;;;;28.59;28.42;101406.84;5078683;28;780;-35
2020/12/06 02:53:49;;;;;;;;;;;;;;;28.50;28.53;101402.47;5078654;28;784;-34
2020/12/06 02:56:15;;;;;;;;;;;;;;;28.98;27.80;101401.56;5065258;28;939;-35
2020/12/06 02:58:40;;;;;;;;;;;;;;;29.22;27.50;101397.84;5058337;28;772;-34
2020/12/06 03:01:05;;;;;;;;;;;;;;;29.06;27.49;101394.22;5058593;28;795;-33
2020/12/06 03:03:30;;;;;;;;;;;;;;;28.13;28.87;101391.28;5058877;28;1960;-34
2020/12/06 03:05:56;;;;;;;;;;;;;;;28.66;28.27;101388.03;5058311;28;836;-34
2020/12/06 03:08:21;;;;;;;;;;;;;;;29.02;27.68;101390.19;5058583;28;760;-34
2020/12/06 03:10:46;;;;;;;;;;;;;;;29.14;27.12;101393.31;5058016;28;952;-35
2020/12/06 03:13:12;;;;;;;;;;;;;;;28.55;28.40;101394.66;5058331;28;764;-34
2020/12/06 03:15:37;;;;;;;;;;;;;;;28.50;28.22;101403.34;5058498;28;748;-35
2020/12/06 03:18:02;;;;;;;;;;;;;;;28.89;28.16;101393.47;5058071;28;1098;-35
2020/12/06 03:20:27;;;;;;;;;;;;;;;29.20;27.38;101398.00;5058221;28;946;-35
2020/12/06 03:22:53;;;;;;;;;;;;;;;29.08;27.48;101396.75;5058190;28;1955;-35
2020/12/06 03:25:18;;;;;;;;;;;;;;;28.39;28.46;101404.56;5057765;28;970;-35
2020/12/06 03:27:43;;;;;;;;;;;;;;;28.60;28.38;101400.41;5058092;28;835;-34
2020/12/06 03:30:08;;;;;;;;;;;;;;;29.03;27.60;101396.47;5058116;28;780;-33
2020/12/06 03:32:34;;;;;;;;;;;;;;;29.26;27.59;101395.59;5057674;28;796;-35
2020/12/06 03:34:59;;;;;;;;;;;;;;;29.02;27.44;101383.94;5058283;28;752;-35
2020/12/06 03:37:24;;;;;;;;;;;;;;;28.22;28.71;101387.53;5058010;28;780;-34
2020/12/06 03:39:50;;;;;;;;;;;;;;;28.74;28.27;101385.28;5057247;28;952;-33
2020/12/06 03:42:15;;;;;;;;;;;;;;;29.14;27.83;101382.50;5057863;28;863;-35
2020/12/06 03:44:40;;;;;;;;;;;;;;;29.07;27.35;101385.09;5057735;28;1910;-35
2020/12/06 03:47:06;;;;;;;;;;;;;;;28.46;28.59;101393.91;5057491;28;840;-34
2020/12/06 03:49:31;;;;;;;;;;;;;;;28.56;28.52;101385.56;5057687;28;753;-33
2020/12/06 03:51:56;;;;;;;;;;;;;;;28.99;27.69;101389.72;5058285;28;796;-35
2020/12/06 03:54:21;;;;;;;;;;;;;;;29.16;27.54;101393.97;5056200;28;812;-34
2020/12/06 03:56:47;;;;;;;;;;;;;;;29.03;27.43;101383.75;5057242;28;998;-35
2020/12/06 03:59:12;;;;;;;;;;;;;;;28.05;28.90;101387.59;5057576;28;772;-35
2020/12/06 04:01:37;;;;;;;;;;;;;;;28.71;28.16;101393.75;5057090;28;776;-35
2020/12/06 04:04:03;;;;;;;;;;;;;;;29.04;27.66;101392.72;5057546;28;1910;-35
2020/12/06 04:06:28;;;;;;;;;;;;;;;29.21;26.75;101394.28;5057469;28;780;-35
2020/12/06 04:08:53;;;;;;;;;;;;;;;28.51;28.05;101393.34;5056839;28;807;-35
2020/12/06 04:11:19;;;;;;;;;;;;;;;28.46;28.43;101391.19;5057252;28;959;-39
2020/12/06 04:13:44;;;;;;;;;;;;;;;28.22;26.70;101377.56;5057356;28;793;-33
2020/12/06 04:16:10;;;;;;;;;;;;;;;26.91;26.85;101375.59;5056821;28;819;-33
2020/12/06 04:18:38;;;;;;;;;;;;;;;26.13;27.11;101375.69;5057020;28;1222;-33
2020/12/06 04:21:03;;;;;;;;;;;;;;;26.48;27.80;101387.31;5057374;28;839;-33
2020/12/06 04:23:28;;;;;;;;;;;;;;;26.81;27.29;101391.13;5057127;28;1975;-32
2020/12/06 04:25:54;;;;;;;;;;;;;;;26.78;26.88;101389.59;5057076;28;971;-43
2020/12/06 04:28:19;;;;;;;;;;;;;;;27.94;24.74;101393.38;5056683;28;744;-33
2020/12/06 04:30:45;;;;;;;;;;;;;;;28.46;24.01;101383.06;5056945;28;803;-35
2020/12/06 04:33:10;;;;;;;;;;;;;;;27.11;25.61;101386.16;5056977;28;871;-32
2020/12/06 04:35:35;;;;;;;;;;;;;;;26.56;26.33;101389.19;5057170;28;966;-43
2020/12/06 04:38:01;;;;;;;;;;;;;;;26.00;27.41;101386.91;5057017;28;804;-42
2020/12/06 04:40:26;;;;;;;;;;;;;;;25.65;28.01;101392.25;5056570;28;955;-32
2020/12/06 04:42:51;;;;;;;;;;;;;;;25.41;28.44;101381.09;5057127;28;823;-39
2020/12/06 04:45:17;;;;;;;;;;;;;;;23.29;30.50;101382.41;5038753;28;1898;-32
2020/12/06 04:47:42;;;;;;;;;;;;;;;22.66;31.34;101379.09;5056797;28;792;-38
2020/12/06 04:50:07;;;;;;;;;;;;;;;22.39;31.23;101384.91;5056616;28;851;-40
2020/12/06 04:52:38;;;;;;;;;;;;;;;23.03;30.03;101385.66;5038495;28;1509;-38
2020/12/06 04:55:03;;;;;;;;;;;;;;;23.91;29.64;101382.06;5055239;28;1017;-49
2020/12/06 04:57:29;;;;;;;;;;;;;;;24.32;30.01;101380.97;5055599;28;800;-42
2020/12/06 05:00:00;;;;;;;;;;;;;;;24.63;30.18;101391.41;5076396;28;783;-43
2020/12/06 05:02:25;;;;;;;;;;;;;;;24.08;29.20;101391.22;5058821;28;788;-38
2020/12/06 05:04:50;;;;;;;;;;;;;;;23.94;29.00;101391.69;5057546;28;1898;-42
2020/12/06 05:07:17;;;;;;;;;;;;;;;23.73;29.13;101396.25;5058629;28;803;-44
2020/12/06 05:09:42;;;;;;;;;;;;;;;23.72;29.34;101396.41;5075579;28;1069;-41
2020/12/06 05:12:07;;;;;;;;;;;;;;;24.53;27.96;101399.53;5038733;28;804;-35
2020/12/06 05:14:32;;;;;;;;;;;;;;;24.40;28.10;101389.13;5056350;28;815;-36
2020/12/06 05:16:58;;;;;;;;;;;;;;;24.68;27.42;101397.19;5064978;28;816;-35
2020/12/06 05:19:24;;;;;;;;;;;;;;;24.58;27.46;101404.47;5075781;28;1248;-40
2020/12/06 05:21:49;;;;;;;;;;;;;;;24.58;27.68;101412.53;5076348;28;779;-38
2020/12/06 05:24:14;;;;;;;;;;;;;;;24.75;27.13;101405.50;5076452;28;1906;-31
2020/12/06 05:26:39;;;;;;;;;;;;;;;26.18;25.38;101405.69;5059723;28;967;-41
2020/12/06 05:29:05;;;;;;;;;;;;;;;26.43;25.72;101411.25;5056144;28;851;-30
2020/12/06 05:31:30;;;;;;;;;;;;;;;25.18;27.96;101421.97;5056070;28;780;-27
2020/12/06 05:33:55;;;;;;;;;;;;;;;24.46;27.98;101419.94;5056502;28;748;-34
2020/12/06 05:36:21;;;;;;;;;;;;;;;23.81;28.35;101424.22;5055895;28;871;-42
2020/12/06 05:38:46;;;;;;;;;;;;;;;23.74;28.96;101426.63;5055812;28;863;-35
2020/12/06 05:41:11;;;;;;;;;;;;;;;23.57;29.02;101428.22;5056218;28;971;-40
2020/12/06 05:43:37;;;;;;;;;;;;;;;23.71;28.62;101421.56;5056045;28;1914;-41
2020/12/06 05:46:05;;;;;;;;;;;;;;;23.70;28.43;101425.25;5055793;28;780;-42
2020/12/06 05:48:31;;;;;;;;;;;;;;;23.42;29.08;101425.13;5055780;28;516;-32
2020/12/06 05:50:57;;;;;;;;;;;;;;;23.06;29.29;101426.47;5056069;28;776;-36
2020/12/06 05:53:22;;;;;;;;;;;;;;;23.95;28.53;101433.69;5055717;28;777;-39
2020/12/06 05:55:47;;;;;;;;;;;;;;;23.96;28.14;101433.53;5038070;28;932;-33
2020/12/06 05:58:13;;;;;;;;;;;;;;;23.88;27.84;101435.25;5038429;28;743;-42
2020/12/06 06:00:38;;;;;;;;;;;;;;;23.04;29.03;101439.16;5038465;28;751;-40
2020/12/06 06:03:03;;;;;;;;;;;;;;;23.08;29.13;101434.38;5055914;28;1906;-43
2020/12/06 06:05:28;;;;;;;;;;;;;;;23.57;28.66;101429.06;5038102;28;795;-32
2020/12/06 06:07:54;;;;;;;;;;;;;;;23.05;29.18;101432.84;5037911;28;772;-43
2020/12/06 06:10:19;;;;;;;;;;;;;;;22.83;29.53;101441.94;5037774;28;916;-33
2020/12/06 06:12:46;;;;;;;;;;;;;;;23.69;28.75;101453.09;5038183;28;839;-35
2020/12/06 06:15:11;;;;;;;;;;;;;;;24.08;27.64;101452.19;5037540;28;1316;-42
2020/12/06 06:17:37;;;;;;;;;;;;;;;23.71;28.29;101449.28;5039316;28;1061;-37
2020/12/06 06:20:02;;;;;;;;;;;;;;;23.21;28.96;101458.25;5041302;28;740;-38
2020/12/06 06:22:30;;;;;;;;;;;;;;;22.73;29.56;101452.66;5059255;28;832;-34
2020/12/06 06:24:55;;;;;;;;;;;;;;;23.22;28.76;101458.13;5041570;28;1975;-33
2020/12/06 06:27:21;;;;;;;;;;;;;;;22.83;29.78;101460.72;5051148;28;1530;-33
2020/12/06 06:29:47;;;;;;;;;;;;;;;23.58;29.26;101457.63;5079766;28;811;-44
2020/12/06 06:32:12;;;;;;;;;;;;;;;24.05;29.22;101453.31;5061433;28;1290;-43
2020/12/06 06:34:38;;;;;;;;;;;;;;;24.19;29.01;101457.41;5078981;28;724;-44
2020/12/06 06:37:11;;;;;;;;;;;;;;;24.13;29.07;101455.28;5079325;28;871;-39
2020/12/06 06:39:36;;;;;;;;;;;;;;;24.82;27.93;101457.72;5079265;28;760;-38
2020/12/06 06:42:04;;;;;;;;;;;;;;;24.60;28.82;101461.66;5059078;28;998;-43
2020/12/06 06:44:30;;;;;;;;;;;;;;;24.45;28.92;101455.91;5058575;28;1973;-38
2020/12/06 06:47:02;;;;;;;;;;;;;;;25.02;28.33;101457.66;5060313;28;800;-43
2020/12/06 06:49:28;;;;;;;;;;;;;;;24.74;28.77;101446.03;5079152;28;792;-43
2020/12/06 06:51:53;;;;;;;;;;;;;;;24.62;28.94;101448.91;5078736;28;779;-43
2020/12/06 06:54:25;;;;;;;;;;;;;;;25.06;28.59;101447.41;5078669;28;816;-33
2020/12/06 06:56:51;;;;;;;;;;;;;;;24.99;28.75;101446.34;5060247;28;959;-34
2020/12/06 06:59:32;;;;;;;;;;;;;;;24.84;28.90;101452.19;5058622;28;843;-32
2020/12/06 07:01:57;;;;;;;;;;;;;;;25.13;28.74;101447.66;5058648;28;891;-35
2020/12/06 07:04:22;;;;;;;;;;;;;;;24.90;29.03;101445.34;5058544;28;1909;-48
2020/12/06 07:06:48;;;;;;;;;;;;;;;24.88;29.19;101453.59;5059013;28;784;-41
2020/12/06 07:09:24;;;;;;;;;;;;;;;25.31;28.72;101451.19;5058200;28;838;-35
2020/12/06 07:11:49;;;;;;;;;;;;;;;26.10;27.31;101463.13;5058347;28;951;-39
2020/12/06 07:14:14;;;;;;;;;;;;;;;25.91;27.29;101459.63;5058667;28;788;-42
2020/12/06 07:16:39;;;;;;;;;;;;;;;25.34;28.07;101462.66;5058410;28;816;-40
2020/12/06 07:19:05;;;;;;;;;;;;;;;24.73;28.48;101464.00;5058173;28;1080;-43
2020/12/06 07:21:31;;;;;;;;;;;;;;;24.81;28.75;101461.41;5058215;28;827;-40
2020/12/06 07:23:56;;;;;;;;;;;;;;;24.90;28.28;101458.81;5040035;28;1914;-37
2020/12/06 07:26:21;;;;;;;;;;;;;;;24.76;28.29;101462.84;5072271;28;1025;-38
2020/12/06 07:28:47;;;;;;;;;;;;;;;25.34;27.89;101465.38;5077651;28;796;-39
2020/12/06 07:31:12;;;;;;;;;;;;;;;25.92;27.07;101466.72;5077846;28;783;-40
2020/12/06 07:33:37;;;;;;;;;;;;;;;25.66;27.52;101464.84;5060032;28;832;-35
2020/12/06 07:36:03;;;;;;;;;;;;;;;24.88;28.19;101472.41;5078519;28;786;-41
2020/12/06 07:38:28;;;;;;;;;;;;;;;24.73;28.14;101473.91;5077843;28;847;-33
2020/12/06 07:41:01;;;;;;;;;;;;;;;25.26;28.19;101477.75;5049680;28;963;-34
2020/12/06 07:43:26;;;;;;;;;;;;;;;24.92;28.16;101473.84;5057779;28;1910;-38
2020/12/06 07:45:51;;;;;;;;;;;;;;;24.67;28.26;101476.19;5057711;28;840;-33
2020/12/06 07:48:20;;;;;;;;;;;;;;;24.91;28.48;101476.69;5057961;28;810;-41
2020/12/06 07:50:45;;;;;;;;;;;;;;;25.37;27.94;101478.53;5057561;28;795;-34
2020/12/06 07:53:11;;;;;;;;;;;;;;;25.12;27.61;101479.13;5057745;28;751;-36
2020/12/06 07:55:36;;;;;;;;;;;;;;;24.92;27.73;101476.53;5057744;28;928;-41
2020/12/06 07:58:01;;;;;;;;;;;;;;;24.99;27.95;101484.84;5057125;28;800;-41
2020/12/06 08:00:31;;;;;;;;;;;;;;;24.92;27.84;101486.47;5039814;28;757;-42
2020/12/06 08:02:56;;;;;;;;;;;;;;;24.74;27.93;101475.63;5057667;28;857;-41
2020/12/06 08:05:28;;;;;;;;;;;;;;;24.90;28.12;101483.94;5057075;28;1959;-36
2020/12/06 08:07:56;;;;;;;;;;;;;;;25.88;26.70;101481.53;5039692;28;796;-40
2020/12/06 08:10:21;;;;;;;;;;;;;;;25.75;26.63;101481.94;5038903;28;1018;-41
2020/12/06 08:12:46;;;;;;;;;;;;;;;25.45;26.60;101489.38;5057112;28;748;-41
2020/12/06 08:15:12;;;;;;;;;;;;;;;25.61;26.31;101488.66;5040106;28;816;-38
2020/12/06 08:17:47;;;;;;;;;;;;;;;25.79;26.57;101483.28;5056957;28;1068;-41
2020/12/06 08:20:13;;;;;;;;;;;;;;;25.60;26.63;101486.13;5056811;28;743;-41
2020/12/06 08:22:48;;;;;;;;;;;;;;;25.73;26.63;101475.84;5057568;28;831;-35
2020/12/06 08:25:13;;;;;;;;;;;;;;;26.01;26.42;101475.72;5056515;28;1910;-35
2020/12/06 08:27:43;;;;;;;;;;;;;;;25.86;26.72;101478.13;5056728;28;1069;-35
2020/12/06 08:30:12;;;;;;;;;;;;;;;25.76;26.89;101477.38;5056768;28;849;-35
2020/12/06 08:32:37;;;;;;;;;;;;;;;25.67;26.74;101471.91;5057260;28;807;-36
2020/12/06 08:35:03;;;;;;;;;;;;;;;25.97;26.68;101462.72;5056961;28;775;-41
2020/12/06 08:37:32;;;;;;;;;;;;;;;25.80;26.75;101465.28;5057015;28;843;-34
2020/12/06 08:40:00;;;;;;;;;;;;;;;25.66;26.79;101464.84;5056179;28;995;-36
2020/12/06 08:42:25;;;;;;;;;;;;;;;26.21;26.49;101451.22;5056719;28;1001;-42
2020/12/06 08:44:51;;;;;;;;;;;;;;;25.99;26.63;101458.84;5056784;28;1983;-35
2020/12/06 08:47:17;;;;;;;;;;;;;;;25.91;26.65;101458.78;5056564;28;837;-42
2020/12/06 08:49:42;;;;;;;;;;;;;;;27.06;25.79;101448.75;5056576;28;839;-36
2020/12/06 08:52:07;;;;;;;;;;;;;;;32.29;19.16;101450.03;5056768;28;752;-43
2020/12/06 08:54:36;;;;;;;;;;;;;;;30.19;21.21;101446.94;5038354;28;1320;-43
2020/12/06 08:57:05;;;;;;;;;;;;;;;29.69;22.25;101435.75;5056509;28;1002;-33
2020/12/06 08:59:30;;;;;;;;;;;;;;;29.63;22.41;101444.63;5056661;28;800;-33
2020/12/06 09:01:58;;;;;;;;;;;;;;;29.84;22.03;101443.06;5056721;28;799;-43
2020/12/06 09:04:23;;;;;;;;;;;;;;;30.10;21.71;101445.31;5055967;28;1970;-34
2020/12/06 09:06:50;;;;;;;;;;;;;;;30.20;21.56;101442.34;5056586;28;811;-38
2020/12/06 09:09:15;;;;;;;;;;;;;;;30.31;21.58;101441.88;5056470;28;802;-44
2020/12/06 09:11:41;;;;;;;;;;;;;;;30.45;21.38;101436.63;5056072;28;999;-35
2020/12/06 09:14:06;;;;;;;;;;;;;;;30.66;21.09;101432.28;5056374;28;760;-36
2020/12/06 09:16:31;;;;;;;;;;;;;;;30.06;21.52;101423.13;5056595;28;779;-45
2020/12/06 09:18:57;;;;;;;;;;;;;;;30.13;21.80;101422.41;5056089;28;1325;-37
2020/12/06 09:21:22;;;;;;;;;;;;;;;30.11;21.77;101424.47;5056212;28;812;-34
2020/12/06 09:23:47;;;;;;;;;;;;;;;29.93;21.72;101418.38;5056181;28;1981;-45
2020/12/06 09:26:13;;;;;;;;;;;;;;;29.99;21.77;101419.50;5056004;28;971;-44
2020/12/06 09:28:38;;;;;;;;;;;;;;;30.06;21.98;101406.88;5056050;28;823;-35
2020/12/06 09:31:03;;;;;;;;;;;;;;;28.56;22.68;101413.44;5056341;28;807;-45
2020/12/06 09:33:29;;;;;;;;;;;;;;;28.01;23.07;101412.44;5056337;28;797;-34
2020/12/06 09:35:54;;;;;;;;;;;;;;;28.90;22.65;101405.97;5056097;28;772;-45
2020/12/06 09:38:19;;;;;;;;;;;;;;;27.71;23.68;101408.44;5056177;28;787;-34
2020/12/06 09:40:45;;;;;;;;;;;;;;;27.18;24.15;101406.06;5055848;28;994;-31
2020/12/06 09:43:10;;;;;;;;;;;;;;;27.02;24.20;101404.19;5056076;28;1981;-43
2020/12/06 09:45:35;;;;;;;;;;;;;;;26.85;24.55;101401.44;5056261;28;859;-30
2020/12/06 09:48:01;;;;;;;;;;;;;;;26.76;24.59;101392.47;5056032;28;760;-29
2020/12/06 09:50:26;;;;;;;;;;;;;;;26.70;24.59;101400.38;5055991;28;772;-45
2020/12/06 09:52:51;;;;;;;;;;;;;;;26.87;24.51;101385.91;5060217;28;756;-45
2020/12/06 09:55:16;;;;;;;;;;;;;;;26.79;24.65;101388.59;5059740;28;967;-29
2020/12/06 09:57:42;;;;;;;;;;;;;;;26.87;24.60;101382.38;5059984;28;768;-37
2020/12/06 10:00:07;;;;;;;;;;;;;;;26.83;24.79;101378.28;5059952;28;859;-34
2020/12/06 10:02:32;;;;;;;;;;;;;;;26.80;24.57;101381.34;5059800;28;779;-44
2020/12/06 10:04:58;;;;;;;;;;;;;;;26.75;24.81;101371.91;5059560;28;1897;-45
2020/12/06 10:07:24;;;;;;;;;;;;;;;26.81;24.97;101366.84;5059834;28;763;-43
2020/12/06 10:09:50;;;;;;;;;;;;;;;26.85;24.78;101377.13;5059506;28;952;-29
2020/12/06 10:12:15;;;;;;;;;;;;;;;26.80;24.82;101378.63;5059132;28;743;-29
2020/12/06 10:14:40;;;;;;;;;;;;;;;26.13;25.33;101389.16;5059686;28;736;-27
2020/12/06 10:17:05;;;;;;;;;;;;;;;24.76;26.88;101382.13;5059472;28;1159;-27
2020/12/06 10:19:31;;;;;;;;;;;;;;;24.71;27.03;101374.50;5059450;28;851;-37
2020/12/06 10:21:56;;;;;;;;;;;;;;;24.85;26.86;101370.47;5059604;28;773;-42
2020/12/06 10:24:21;;;;;;;;;;;;;;;25.16;26.41;101367.41;5059347;28;1918;-44
2020/12/06 10:26:50;;;;;;;;;;;;;;;25.04;26.21;101361.41;5058954;28;963;-30
2020/12/06 10:29:15;;;;;;;;;;;;;;;25.27;26.36;101370.88;5059413;28;741;-25
2020/12/06 10:31:41;;;;;;;;;;;;;;;25.42;26.67;101372.00;5059112;28;768;-37
2020/12/06 10:34:06;;;;;;;;;;;;;;;25.72;25.74;101366.38;5059174;28;839;-26
2020/12/06 10:36:31;;;;;;;;;;;;;;;26.14;25.54;101358.50;5059004;28;800;-33
2020/12/06 10:38:56;;;;;;;;;;;;;;;26.12;26.07;101364.06;5059049;28;803;-32
2020/12/06 10:41:22;;;;;;;;;;;;;;;25.86;26.17;101366.78;5059003;28;1010;-32
2020/12/06 10:43:47;;;;;;;;;;;;;;;25.70;26.36;101362.13;5058807;28;1906;-37
2020/12/06 10:46:12;;;;;;;;;;;;;;;25.79;26.65;101358.50;5058901;28;760;-38
2020/12/06 10:48:37;;;;;;;;;;;;;;;25.07;27.27;101366.50;5058874;28;808;-39
2020/12/06 10:51:04;;;;;;;;;;;;;;;25.21;27.06;101356.19;5058951;28;847;-38
2020/12/06 10:53:29;;;;;;;;;;;;;;;26.08;26.38;101357.28;5058789;28;769;-30
2020/12/06 10:55:54;;;;;;;;;;;;;;;26.07;25.36;101349.38;5058461;28;967;-43
2020/12/06 10:58:19;;;;;;;;;;;;;;;24.98;26.31;101345.91;5058770;28;795;-30
2020/12/06 11:00:45;;;;;;;;;;;;;;;24.53;26.66;101343.06;5058482;28;685;-30
2020/12/06 11:03:10;;;;;;;;;;;;;;;25.09;26.63;101339.41;5057602;28;1906;-43
2020/12/06 11:05:36;;;;;;;;;;;;;;;24.86;26.58;101334.47;5058624;28;756;-30
2020/12/06 11:08:01;;;;;;;;;;;;;;;24.46;27.17;101333.88;5058540;28;764;-34
2020/12/06 11:10:26;;;;;;;;;;;;;;;24.78;27.22;101332.56;5058348;28;1003;-30
2020/12/06 11:12:52;;;;;;;;;;;;;;;25.17;26.37;101325.19;5058508;28;772;-43
2020/12/06 11:15:17;;;;;;;;;;;;;;;24.19;27.06;101322.19;5058435;28;871;-44
2020/12/06 11:17:42;;;;;;;;;;;;;;;24.58;27.49;101315.72;5058172;28;1080;-39
2020/12/06 11:20:07;;;;;;;;;;;;;;;24.85;27.07;101313.09;5058277;28;808;-28
2020/12/06 11:22:33;;;;;;;;;;;;;;;25.27;26.04;101319.72;5058115;28;823;-45
2020/12/06 11:24:58;;;;;;;;;;;;;;;24.83;26.83;101316.81;5057803;28;1911;-34
2020/12/06 11:27:23;;;;;;;;;;;;;;;24.74;27.01;101316.88;5058189;28;748;-44
2020/12/06 11:29:49;;;;;;;;;;;;;;;25.72;25.75;101301.69;5058520;28;792;-34
2020/12/06 11:32:17;;;;;;;;;;;;;;;26.20;25.01;101309.31;5058122;28;756;-44
2020/12/06 11:34:42;;;;;;;;;;;;;;;25.36;25.90;101296.41;5058027;28;831;-35
2020/12/06 11:37:08;;;;;;;;;;;;;;;24.98;26.19;101300.13;5057985;28;829;-44
2020/12/06 11:39:33;;;;;;;;;;;;;;;25.70;25.48;101295.63;5057882;28;843;-44
2020/12/06 11:41:58;;;;;;;;;;;;;;;25.31;25.37;101296.84;5057547;28;960;-34
2020/12/06 11:44:24;;;;;;;;;;;;;;;24.73;26.20;101299.03;5057728;28;1969;-44
2020/12/06 11:46:49;;;;;;;;;;;;;;;24.84;26.83;101293.41;5057742;28;779;-30
2020/12/06 11:49:14;;;;;;;;;;;;;;;25.97;25.28;101300.97;5057679;28;994;-41
2020/12/06 11:51:40;;;;;;;;;;;;;;;26.01;25.12;101305.88;5057667;28;767;-33
2020/12/06 11:54:05;;;;;;;;;;;;;;;25.28;25.98;101302.56;5057528;28;852;-36
2020/12/06 11:56:30;;;;;;;;;;;;;;;25.22;26.27;101298.66;5057435;28;952;-34
2020/12/06 11:58:55;;;;;;;;;;;;;;;25.19;26.07;101310.56;5057743;28;558;-34
2020/12/06 12:01:21;;;;;;;;;;;;;;;25.50;25.89;101306.59;5057394;28;757;-32
2020/12/06 12:03:46;;;;;;;;;;;;;;;30.71;19.96;101307.66;5057258;28;1955;-33
2020/12/06 12:06:11;;;;;;;;;;;;;;;30.50;19.86;101301.16;5057581;28;756;-34
2020/12/06 12:08:37;;;;;;;;;;;;;;;29.88;20.75;101297.94;5056901;28;1016;-34
2020/12/06 12:11:03;;;;;;;;;;;;;;;29.90;20.99;101302.13;5057059;28;998;-41
2020/12/06 12:13:29;;;;;;;;;;;;;;;29.92;20.68;101296.50;5057631;28;768;-33
2020/12/06 12:15:54;;;;;;;;;;;;;;;30.03;20.78;101303.34;5056273;28;783;-31
2020/12/06 12:18:19;;;;;;;;;;;;;;;30.14;20.60;101310.97;5056703;28;1079;-31
2020/12/06 12:20:44;;;;;;;;;;;;;;;30.35;20.39;101303.94;5057348;28;891;-42
2020/12/06 12:23:10;;;;;;;;;;;;;;;30.50;20.54;101297.59;5057146;28;763;-32
2020/12/06 12:25:36;;;;;;;;;;;;;;;30.73;20.03;101304.75;5056696;28;1011;-34
2020/12/06 12:28:02;;;;;;;;;;;;;;;30.63;20.34;101305.06;5056785;28;832;-32
2020/12/06 12:30:27;;;;;;;;;;;;;;;30.68;20.14;101305.28;5057235;28;851;-43
2020/12/06 12:32:52;;;;;;;;;;;;;;;29.41;21.56;101311.63;5057217;28;804;-41
2020/12/06 12:35:17;;;;;;;;;;;;;;;29.05;21.78;101311.28;5057124;28;792;-32
2020/12/06 12:37:43;;;;;;;;;;;;;;;29.53;21.54;101320.16;5056661;28;786;-30
2020/12/06 12:40:08;;;;;;;;;;;;;;;29.60;21.39;101320.25;5056579;28;1006;-33
2020/12/06 12:42:33;;;;;;;;;;;;;;;29.61;21.57;101311.97;5056452;28;851;-30
2020/12/06 12:44:59;;;;;;;;;;;;;;;29.53;21.53;101315.56;5056681;28;1914;-29
2020/12/06 12:47:24;;;;;;;;;;;;;;;29.51;21.65;101300.53;5056724;28;764;-30